createdAt,value
2018-05-18T00:00:18.387Z,4.33
2018-05-18T00:02:47.252Z,4.50
2018-05-18T00:05:16.010Z,4.60
2018-05-18T00:07:45.415Z,4.40
2018-05-18T00:10:13.959Z,4.10
2018-05-18T00:12:43.714Z,4.60
2018-05-18T00:15:12.937Z,4.63
2018-05-18T00:17:42.210Z,4.57
2018-05-18T00:20:11.232Z,4.87
2018-05-18T00:22:40.245Z,4.90
2018-05-18T00:25:08.946Z,4.77
2018-05-18T00:27:37.857Z,4.23
2018-05-18T00:30:06.565Z,4.00
2018-05-18T00:32:35.830Z,4.63
2018-05-18T00:35:04.973Z,4.43
2018-05-18T00:37:34.429Z,5.10
2018-05-18T00:40:04.003Z,5.00
2018-05-18T00:42:33.033Z,5.47
2018-05-18T00:45:02.870Z,4.90
2018-05-18T00:47:33.044Z,5.37
2018-05-18T00:50:03.219Z,5.40
2018-05-18T00:52:32.051Z,5.13
2018-05-18T00:55:01.359Z,5.90
2018-05-18T00:57:31.001Z,6.00
2018-05-18T00:59:59.838Z,6.80
2018-05-18T01:02:28.601Z,6.50
2018-05-18T01:04:58.180Z,5.87
2018-05-18T01:07:26.959Z,5.80
2018-05-18T01:09:56.798Z,6.37
2018-05-18T01:12:27.281Z,5.97
2018-05-18T01:14:56.514Z,5.90
2018-05-18T01:17:25.321Z,5.63
2018-05-18T01:19:54.056Z,5.80
2018-05-18T01:22:22.931Z,5.33
2018-05-18T01:24:52.484Z,5.70
2018-05-18T01:27:21.372Z,5.30
2018-05-18T01:29:51.075Z,5.40
2018-05-18T01:32:20.249Z,5.07
2018-05-18T01:34:49.296Z,5.87
2018-05-18T01:37:18.961Z,5.67
2018-05-18T01:39:49.739Z,6.03
2018-05-18T01:42:18.978Z,6.03
2018-05-18T01:44:48.774Z,7.00
2018-05-18T01:47:17.358Z,8.00
2018-05-18T01:49:46.067Z,9.17
2018-05-18T01:52:15.003Z,9.17
2018-05-18T01:54:43.657Z,9.07
2018-05-18T01:57:13.243Z,9.63
2018-05-18T01:59:41.972Z,7.93
2018-05-18T02:02:12.341Z,11.73
2018-05-18T02:04:41.210Z,8.33
2018-05-18T02:07:10.163Z,8.13
2018-05-18T02:09:40.202Z,6.20
2018-05-18T02:12:09.484Z,7.17
2018-05-18T02:14:38.156Z,7.30
2018-05-18T02:17:06.777Z,8.07
2018-05-18T02:19:35.452Z,6.47
2018-05-18T02:22:05.215Z,6.30
2018-05-18T02:24:33.825Z,7.10
2018-05-18T02:27:02.417Z,7.17
2018-05-18T02:29:31.240Z,6.40
2018-05-18T02:31:59.948Z,6.30
2018-05-18T02:34:28.694Z,7.07
2018-05-18T02:36:57.449Z,7.73
2018-05-18T02:39:26.686Z,6.60
2018-05-18T02:41:56.756Z,6.50
2018-05-18T02:44:25.557Z,6.63
2018-05-18T02:46:54.412Z,8.23
2018-05-18T02:49:23.963Z,9.53
2018-05-18T02:51:52.792Z,10.50
2018-05-18T02:54:21.380Z,9.57
2018-05-18T02:56:50.096Z,13.07
2018-05-18T02:59:18.912Z,10.03
2018-05-18T03:01:48.005Z,10.40
2018-05-18T03:04:16.853Z,11.43
2018-05-18T03:06:45.366Z,13.60
2018-05-18T03:09:14.141Z,9.73
2018-05-18T03:11:43.298Z,9.47
2018-05-18T03:14:12.579Z,10.10
2018-05-18T03:16:41.702Z,12.77
2018-05-18T03:19:10.417Z,10.87
2018-05-18T03:21:39.226Z,11.40
2018-05-18T03:24:08.036Z,12.67
2018-05-18T03:26:37.553Z,15.30
2018-05-18T03:29:06.294Z,17.10
2018-05-18T03:31:35.078Z,16.87
2018-05-18T03:34:03.883Z,16.60
2018-05-18T03:36:32.702Z,16.43
2018-05-18T03:39:01.298Z,14.77
2018-05-18T03:41:30.074Z,17.37
2018-05-18T03:44:00.415Z,15.93
2018-05-18T03:46:30.930Z,16.30
2018-05-18T03:48:59.470Z,16.43
2018-05-18T03:51:29.814Z,18.73
2018-05-18T03:54:00.717Z,15.73
2018-05-18T03:56:29.309Z,15.20
2018-05-18T03:58:58.028Z,16.27
2018-05-18T04:01:44.459Z,14.67
2018-05-18T04:04:30.923Z,16.10
2018-05-18T04:07:17.501Z,16.47
2018-05-18T04:09:47.118Z,15.47
2018-05-18T04:12:16.622Z,12.87
2018-05-18T04:14:45.461Z,14.43
2018-05-18T04:17:14.967Z,13.60
2018-05-18T04:19:43.735Z,13.67
2018-05-18T04:22:12.630Z,11.57
2018-05-18T04:24:41.765Z,13.57
2018-05-18T04:27:11.036Z,12.60
2018-05-18T04:29:40.317Z,11.97
2018-05-18T04:32:09.460Z,11.73
2018-05-18T04:34:39.875Z,12.23
2018-05-18T04:37:08.598Z,11.60
2018-05-18T04:39:37.912Z,10.83
2018-05-18T04:42:06.552Z,11.73
2018-05-18T04:44:35.201Z,11.60
2018-05-18T04:47:05.039Z,12.43
2018-05-18T04:49:33.858Z,12.37
2018-05-18T04:52:04.050Z,10.10
2018-05-18T04:54:32.841Z,10.00
2018-05-18T04:57:02.059Z,10.27
2018-05-18T04:59:32.141Z,9.50
2018-05-18T05:02:00.994Z,9.27
2018-05-18T05:04:29.535Z,9.53
2018-05-18T05:06:58.896Z,9.60
2018-05-18T05:09:28.475Z,9.97
2018-05-18T05:11:58.029Z,9.57
2018-05-18T05:14:27.502Z,7.83
2018-05-18T05:16:56.402Z,7.70
2018-05-18T05:19:25.190Z,7.27
2018-05-18T05:21:53.958Z,8.00
2018-05-18T05:24:23.538Z,10.03
2018-05-18T05:26:53.099Z,10.53
2018-05-18T05:29:22.869Z,7.83
2018-05-18T05:31:51.679Z,8.47
2018-05-18T05:34:21.801Z,8.57
2018-05-18T05:36:51.196Z,8.80
2018-05-18T05:39:20.635Z,8.63
2018-05-18T05:41:49.512Z,8.53
2018-05-18T05:44:18.189Z,8.20
2018-05-18T05:46:46.848Z,8.93
2018-05-18T05:49:16.132Z,7.97
2018-05-18T05:51:44.885Z,7.80
2018-05-18T05:54:13.653Z,8.27
2018-05-18T05:56:42.812Z,8.37
2018-05-18T05:59:12.431Z,6.90
2018-05-18T06:01:41.210Z,7.97
2018-05-18T06:04:10.127Z,8.20
2018-05-18T06:06:38.941Z,7.90
2018-05-18T06:09:07.470Z,8.03
2018-05-18T06:11:36.251Z,11.37
2018-05-18T06:14:05.153Z,9.13
2018-05-18T06:16:35.853Z,9.07
2018-05-18T06:19:04.930Z,9.17
2018-05-18T06:21:33.822Z,8.67
2018-05-18T06:24:03.876Z,7.47
2018-05-18T06:26:33.059Z,7.70
2018-05-18T06:29:03.391Z,7.33
2018-05-18T06:31:32.141Z,7.23
2018-05-18T06:34:00.997Z,7.20
2018-05-18T06:36:29.777Z,6.90
2018-05-18T06:38:58.471Z,6.73
2018-05-18T06:41:27.280Z,6.30
2018-05-18T06:43:56.034Z,6.00
2018-05-18T06:46:24.792Z,6.23
2018-05-18T06:48:53.621Z,6.20
2018-05-18T06:51:22.380Z,6.70
2018-05-18T06:53:51.882Z,5.90
2018-05-18T06:56:20.550Z,5.80
2018-05-18T06:58:50.715Z,5.67
2018-05-18T07:01:20.544Z,5.43
2018-05-18T07:03:49.343Z,5.50
2018-05-18T07:06:18.318Z,5.33
2018-05-18T07:08:47.866Z,5.10
2018-05-18T07:11:17.460Z,5.17
2018-05-18T07:13:47.028Z,5.20
2018-05-18T07:16:15.729Z,4.63
2018-05-18T07:18:44.533Z,5.17
2018-05-18T07:21:13.311Z,4.60
2018-05-18T07:23:42.790Z,4.50
2018-05-18T07:26:12.643Z,4.37
2018-05-18T07:28:42.149Z,3.90
2018-05-18T07:31:11.639Z,3.23
2018-05-18T07:33:41.387Z,3.37
2018-05-18T07:36:10.227Z,3.40
2018-05-18T07:38:39.075Z,3.30
2018-05-18T07:41:08.642Z,3.47
2018-05-18T07:43:37.314Z,3.00
2018-05-18T07:46:06.505Z,3.00
2018-05-18T07:48:36.405Z,3.00
2018-05-18T07:51:05.210Z,2.90
2018-05-18T07:53:34.228Z,3.30
2018-05-18T07:56:03.972Z,2.90
2018-05-18T07:58:33.075Z,3.20
2018-05-18T08:01:02.818Z,3.37
2018-05-18T08:03:31.928Z,3.40
2018-05-18T08:06:00.703Z,3.17
2018-05-18T08:08:30.272Z,2.57
2018-05-18T08:10:59.563Z,2.70
2018-05-18T08:13:29.110Z,2.37
2018-05-18T08:15:57.780Z,2.53
2018-05-18T08:18:27.305Z,2.10
2018-05-18T08:20:57.923Z,2.10
2018-05-18T08:23:42.558Z,2.20
2018-05-18T08:26:12.495Z,2.17
2018-05-18T08:28:58.962Z,1.97
2018-05-18T08:31:29.405Z,2.27
2018-05-18T08:33:59.383Z,1.80
2018-05-18T08:36:28.199Z,2.63
2018-05-18T08:38:57.011Z,1.70
2018-05-18T08:41:26.172Z,2.00
2018-05-18T08:43:56.265Z,1.90
2018-05-18T08:46:25.229Z,2.60
2018-05-18T08:48:54.497Z,2.70
2018-05-18T08:51:23.298Z,2.07
2018-05-18T08:53:52.263Z,2.30
2018-05-18T08:56:22.042Z,2.00
2018-05-18T08:58:52.430Z,1.90
2018-05-18T09:01:22.193Z,3.97
2018-05-18T09:03:51.836Z,2.00
2018-05-18T09:06:20.672Z,1.20
2018-05-18T09:08:49.886Z,1.60
2018-05-18T09:11:19.096Z,1.70
2018-05-18T09:13:49.167Z,1.60
2018-05-18T09:16:18.944Z,1.67
2018-05-18T09:18:48.491Z,1.40
2018-05-18T09:21:17.263Z,1.37
2018-05-18T09:23:46.843Z,1.80
2018-05-18T09:26:16.054Z,1.53
2018-05-18T09:28:45.704Z,1.63
2018-05-18T09:31:15.174Z,1.60
2018-05-18T09:33:45.868Z,1.50
2018-05-18T09:36:14.390Z,1.43
2018-05-18T09:38:43.272Z,1.40
2018-05-18T09:41:14.203Z,1.00
2018-05-18T09:43:43.985Z,1.40
2018-05-18T09:46:13.184Z,5.17
2018-05-18T09:48:42.708Z,0.80
2018-05-18T09:51:11.619Z,0.80
2018-05-18T09:53:40.957Z,0.90
2018-05-18T09:56:10.753Z,1.10
2018-05-18T09:58:39.997Z,1.30
2018-05-18T10:01:08.800Z,0.80
2018-05-18T10:03:37.659Z,0.90
2018-05-18T10:06:06.833Z,1.50
2018-05-18T10:08:35.533Z,0.97
2018-05-18T10:11:04.316Z,1.20
2018-05-18T10:13:33.820Z,1.30
2018-05-18T10:16:02.583Z,1.00
2018-05-18T10:18:32.043Z,1.20
2018-05-18T10:21:01.679Z,1.30
2018-05-18T10:23:30.842Z,1.10
2018-05-18T10:26:00.144Z,1.20
2018-05-18T10:28:30.763Z,1.00
2018-05-18T10:31:01.836Z,1.20
2018-05-18T10:33:30.687Z,0.90
2018-05-18T10:35:59.470Z,1.53
2018-05-18T10:38:29.042Z,1.10
2018-05-18T10:40:57.834Z,0.90
2018-05-18T10:43:26.844Z,1.20
2018-05-18T10:45:55.685Z,1.00
2018-05-18T10:48:24.437Z,0.97
2018-05-18T10:50:53.304Z,1.00
2018-05-18T10:53:22.727Z,0.90
2018-05-18T10:55:52.377Z,1.10
2018-05-18T10:58:22.425Z,0.90
2018-05-18T11:00:52.002Z,0.80
2018-05-18T11:03:20.803Z,0.90
2018-05-18T11:05:49.605Z,1.03
2018-05-18T11:08:19.164Z,0.83
2018-05-18T11:10:47.883Z,0.90
2018-05-18T11:13:17.981Z,0.90
2018-05-18T11:15:47.962Z,0.90
2018-05-18T11:18:17.093Z,1.10
2018-05-18T11:20:47.000Z,1.00
2018-05-18T11:23:18.163Z,0.90
2018-05-18T11:25:48.881Z,0.90
2018-05-18T11:28:18.354Z,1.10
2018-05-18T11:30:47.430Z,1.00
2018-05-18T11:33:16.654Z,1.00
2018-05-18T11:35:46.588Z,1.10
2018-05-18T11:38:16.239Z,1.37
2018-05-18T11:40:45.456Z,1.10
2018-05-18T11:43:15.959Z,1.00
2018-05-18T11:45:46.829Z,0.80
2018-05-18T11:48:17.008Z,0.93
2018-05-18T11:50:47.713Z,1.10
2018-05-18T11:53:17.317Z,1.00
2018-05-18T11:55:48.056Z,1.20
2018-05-18T11:58:18.655Z,1.00
2018-05-18T12:00:49.912Z,1.10
2018-05-18T12:03:19.490Z,1.10
2018-05-18T12:05:51.002Z,1.50
2018-05-18T12:08:22.098Z,3.60
2018-05-18T12:10:52.095Z,1.70
2018-05-18T12:13:21.270Z,1.40
2018-05-18T12:15:53.698Z,1.30
2018-05-18T12:18:24.960Z,1.20
2018-05-18T12:20:53.922Z,1.30
2018-05-18T12:23:23.110Z,1.30
2018-05-18T12:25:52.891Z,1.20
2018-05-18T12:28:22.355Z,1.10
2018-05-18T12:30:54.594Z,1.10
2018-05-18T12:33:26.114Z,1.07
2018-05-18T12:35:57.813Z,1.20
2018-05-18T12:38:30.027Z,1.23
2018-05-18T12:41:00.066Z,1.20
2018-05-18T12:43:29.177Z,1.40
2018-05-18T12:45:58.473Z,1.10
2018-05-18T12:48:28.493Z,1.00
2018-05-18T12:50:58.706Z,1.30
2018-05-18T12:53:29.389Z,1.73
2018-05-18T12:56:00.466Z,1.20
2018-05-18T12:58:29.485Z,1.20
2018-05-18T13:00:58.581Z,1.23
2018-05-18T13:03:28.468Z,1.27
2018-05-18T13:05:57.521Z,1.00
2018-05-18T13:08:26.226Z,1.33
2018-05-18T13:10:55.103Z,1.20
2018-05-18T13:13:23.988Z,1.30
2018-05-18T13:15:53.282Z,1.10
2018-05-18T13:18:22.546Z,1.27
2018-05-18T13:20:51.241Z,1.30
2018-05-18T13:23:19.989Z,1.40
2018-05-18T13:25:50.403Z,1.20
2018-05-18T13:28:19.597Z,1.17
2018-05-18T13:30:49.563Z,0.90
2018-05-18T13:33:18.368Z,0.90
2018-05-18T13:35:47.789Z,1.10
2018-05-18T13:38:16.904Z,1.00
2018-05-18T13:40:45.712Z,1.13
2018-05-18T13:43:14.730Z,1.07
2018-05-18T13:45:43.707Z,0.70
2018-05-18T13:48:13.953Z,1.00
2018-05-18T13:50:42.711Z,0.83
2018-05-18T13:53:11.434Z,0.90
2018-05-18T13:55:42.263Z,1.17
2018-05-18T13:58:11.912Z,0.80
2018-05-18T14:00:40.811Z,1.03
2018-05-18T14:03:10.093Z,1.10
2018-05-18T14:05:39.702Z,1.10
2018-05-18T14:08:09.344Z,0.90
2018-05-18T14:10:39.007Z,0.90
2018-05-18T14:13:07.695Z,0.90
2018-05-18T14:15:36.303Z,0.87
2018-05-18T14:18:06.371Z,0.80
2018-05-18T14:20:35.700Z,0.90
2018-05-18T14:23:04.814Z,1.17
2018-05-18T14:25:34.595Z,0.90
2018-05-18T14:28:05.402Z,0.97
2018-05-18T14:30:34.202Z,1.03
2018-05-18T14:33:03.913Z,1.23
2018-05-18T14:35:32.788Z,1.60
2018-05-18T14:38:03.450Z,1.37
2018-05-18T14:40:33.119Z,0.83
2018-05-18T14:43:01.996Z,1.00
2018-05-18T14:45:31.672Z,1.23
2018-05-18T14:48:02.334Z,1.27
2018-05-18T14:50:32.065Z,0.90
2018-05-18T14:53:01.750Z,1.13
2018-05-18T14:55:30.730Z,0.90
2018-05-18T14:58:01.295Z,0.93
2018-05-18T15:00:31.162Z,1.10
2018-05-18T15:03:01.174Z,1.07
2018-05-18T15:05:31.861Z,1.10
2018-05-18T15:08:01.445Z,1.40
2018-05-18T15:10:31.026Z,1.00
2018-05-18T15:12:59.835Z,1.60
2018-05-18T15:15:30.881Z,1.30
2018-05-18T15:18:00.158Z,1.30
2018-05-18T15:20:29.738Z,1.47
2018-05-18T15:22:59.204Z,1.20
2018-05-18T15:25:28.821Z,1.47
2018-05-18T15:27:57.903Z,1.10
2018-05-18T15:30:26.718Z,1.10
2018-05-18T15:32:59.238Z,1.10
2018-05-18T15:35:28.083Z,1.13
2018-05-18T15:37:56.828Z,1.63
2018-05-18T15:40:26.043Z,1.40
2018-05-18T15:42:54.790Z,1.30
2018-05-18T15:45:24.848Z,1.30
2018-05-18T15:47:55.852Z,1.50
2018-05-18T15:50:24.547Z,1.80
2018-05-18T15:52:53.254Z,3.07
2018-05-18T15:55:22.393Z,1.57
2018-05-18T15:57:51.330Z,1.37
2018-05-18T16:00:20.146Z,1.30
2018-05-18T16:02:49.855Z,1.33
2018-05-18T16:05:18.773Z,1.20
2018-05-18T16:07:48.777Z,1.13
2018-05-18T16:10:18.048Z,1.30
2018-05-18T16:12:48.548Z,1.30
2018-05-18T16:15:18.332Z,1.13
2018-05-18T16:17:51.440Z,1.27
2018-05-18T16:20:26.828Z,1.70
2018-05-18T16:22:56.452Z,1.47
2018-05-18T16:25:25.282Z,2.50
2018-05-18T16:27:54.376Z,1.50
2018-05-18T16:30:23.542Z,1.50
2018-05-18T16:32:53.134Z,1.50
2018-05-18T16:35:22.942Z,1.30
2018-05-18T16:37:53.011Z,1.37
2018-05-18T16:40:22.955Z,1.40
2018-05-18T16:42:52.495Z,1.77
2018-05-18T16:45:21.491Z,1.27
2018-05-18T16:47:51.932Z,1.20
2018-05-18T16:50:21.913Z,0.93
2018-05-18T16:52:50.962Z,1.10
2018-05-18T16:55:20.925Z,1.13
2018-05-18T16:57:50.337Z,1.10
2018-05-18T17:00:19.753Z,2.20
2018-05-18T17:02:50.289Z,1.73
2018-05-18T17:05:20.037Z,1.27
2018-05-18T17:07:48.624Z,1.50
2018-05-18T17:10:18.562Z,1.43
2018-05-18T17:12:47.471Z,1.23
2018-05-18T17:15:18.501Z,1.67
2018-05-18T17:17:47.529Z,1.40
2018-05-18T17:20:16.131Z,1.30
2018-05-18T17:22:46.072Z,1.33
2018-05-18T17:25:15.819Z,1.30
2018-05-18T17:27:45.715Z,1.00
2018-05-18T17:30:15.097Z,1.10
2018-05-18T17:32:44.033Z,1.10
2018-05-18T17:35:13.000Z,1.20
2018-05-18T17:37:41.844Z,1.30
2018-05-18T17:40:10.768Z,1.00
2018-05-18T17:42:39.755Z,1.10
2018-05-18T17:45:08.685Z,1.30
2018-05-18T17:47:37.489Z,1.83
2018-05-18T17:50:06.193Z,1.70
2018-05-18T17:52:34.984Z,1.90
2018-05-18T17:55:05.954Z,1.60
2018-05-18T17:57:34.980Z,1.60
2018-05-18T18:00:05.017Z,1.30
2018-05-18T18:02:34.183Z,1.60
2018-05-18T18:05:02.990Z,1.43
2018-05-18T18:07:31.876Z,1.10
2018-05-18T18:10:00.789Z,1.57
2018-05-18T18:12:30.564Z,1.47
2018-05-18T18:15:01.758Z,1.23
2018-05-18T18:17:31.212Z,1.23
2018-05-18T18:20:00.069Z,1.10
2018-05-18T18:22:30.719Z,1.60
2018-05-18T18:25:00.907Z,1.53
2018-05-18T18:27:31.419Z,2.10
2018-05-18T18:30:02.021Z,2.10
2018-05-18T18:32:32.224Z,1.60
2018-05-18T18:35:01.848Z,1.53
2018-05-18T18:37:31.119Z,1.70
2018-05-18T18:39:59.890Z,1.87
2018-05-18T18:42:28.982Z,1.73
2018-05-18T18:44:58.698Z,1.70
2018-05-18T18:47:29.817Z,1.90
2018-05-18T18:49:58.824Z,1.73
2018-05-18T18:52:28.460Z,1.80
2018-05-18T18:54:58.526Z,1.80
2018-05-18T18:57:27.976Z,1.70
2018-05-18T18:59:58.999Z,2.20
2018-05-18T19:02:27.918Z,3.60
2018-05-18T19:04:58.748Z,1.60
2018-05-18T19:07:27.705Z,1.90
2018-05-18T19:09:58.683Z,3.73
2018-05-18T19:12:27.828Z,3.70
2018-05-18T19:14:57.763Z,2.10
2018-05-18T19:17:27.752Z,2.40
2018-05-18T19:19:57.709Z,2.00
2018-05-18T19:22:26.557Z,2.03
2018-05-18T19:24:55.606Z,6.87
2018-05-18T19:27:25.865Z,2.53
2018-05-18T19:29:55.699Z,2.40
2018-05-18T19:32:25.013Z,2.10
2018-05-18T19:34:55.983Z,1.90
2018-05-18T19:37:25.825Z,2.27
2018-05-18T19:39:56.089Z,2.10
2018-05-18T19:42:26.667Z,2.00
2018-05-18T19:44:57.178Z,2.57
2018-05-18T19:47:26.740Z,2.57
2018-05-18T19:49:57.619Z,2.97
2018-05-18T19:52:28.640Z,4.17
2018-05-18T19:54:58.475Z,3.80
2018-05-18T19:57:29.281Z,4.60
2018-05-18T20:00:02.498Z,6.37
2018-05-18T20:02:35.342Z,4.00
2018-05-18T20:05:06.293Z,3.07
2018-05-18T20:07:36.317Z,4.13
2018-05-18T20:10:05.809Z,3.03
2018-05-18T20:12:37.047Z,2.30
2018-05-18T20:15:07.346Z,2.37
2018-05-18T20:17:42.120Z,3.10
2018-05-18T20:20:11.012Z,3.33
2018-05-18T20:22:42.399Z,3.07
2018-05-18T20:25:13.616Z,3.40
2018-05-18T20:27:43.719Z,3.10
2018-05-18T20:30:14.467Z,3.43
2018-05-18T20:32:43.650Z,3.27
2018-05-18T20:35:14.057Z,3.33
2018-05-18T20:37:42.785Z,3.03
2018-05-18T20:40:11.845Z,3.10
2018-05-18T20:42:42.297Z,3.00
2018-05-18T20:45:11.924Z,3.33
2018-05-18T20:47:41.430Z,2.33
2018-05-18T20:50:11.541Z,2.80
2018-05-18T20:52:40.464Z,2.43
2018-05-18T20:55:09.481Z,2.90
2018-05-18T20:57:38.230Z,2.90
2018-05-18T21:00:06.920Z,2.60
2018-05-18T21:02:35.464Z,2.20
2018-05-18T21:05:04.228Z,2.43
2018-05-18T21:07:33.640Z,2.60
2018-05-18T21:10:02.552Z,2.40
2018-05-18T21:12:31.220Z,2.90
2018-05-18T21:15:01.200Z,2.50
2018-05-18T21:17:30.927Z,2.10
2018-05-18T21:20:00.307Z,2.30
2018-05-18T21:22:30.043Z,2.30
2018-05-18T21:25:00.704Z,2.47
2018-05-18T21:27:30.473Z,2.80
2018-05-18T21:29:59.481Z,3.10
2018-05-18T21:32:28.396Z,2.67
2018-05-18T21:34:57.217Z,2.70
2018-05-18T21:37:26.283Z,2.63
2018-05-18T21:39:56.063Z,2.90
2018-05-18T21:42:24.575Z,3.10
2018-05-18T21:44:53.596Z,2.80
2018-05-18T21:47:22.598Z,3.47
2018-05-18T21:49:52.070Z,3.63
2018-05-18T21:52:21.927Z,3.10
2018-05-18T21:54:51.463Z,3.07
2018-05-18T21:57:20.223Z,3.20
2018-05-18T21:59:49.460Z,3.20
2018-05-18T22:02:19.020Z,3.23
2018-05-18T22:04:49.055Z,3.17
2018-05-18T22:07:17.726Z,3.20
2018-05-18T22:09:47.375Z,3.60
2018-05-18T22:12:16.065Z,3.57
2018-05-18T22:14:45.599Z,4.00
2018-05-18T22:17:15.681Z,4.10
2018-05-18T22:19:44.931Z,4.20
2018-05-18T22:22:13.680Z,3.70
2018-05-18T22:24:42.313Z,4.10
2018-05-18T22:27:11.009Z,3.63
2018-05-18T22:29:40.025Z,3.27
2018-05-18T22:32:08.939Z,3.30
2018-05-18T22:34:38.162Z,3.00
2018-05-18T22:37:07.983Z,3.10
2018-05-18T22:39:36.900Z,2.67
2018-05-18T22:42:05.494Z,2.60
2018-05-18T22:44:34.354Z,2.60
2018-05-18T22:47:03.451Z,2.50
2018-05-18T22:49:32.470Z,2.23
2018-05-18T22:52:02.335Z,2.50
2018-05-18T22:54:30.977Z,2.63
2018-05-18T22:57:00.463Z,2.40
2018-05-18T22:59:29.499Z,3.00
2018-05-18T23:01:59.071Z,2.70
2018-05-18T23:04:27.879Z,3.70
2018-05-18T23:06:57.181Z,4.07
2018-05-18T23:09:25.896Z,3.70
2018-05-18T23:11:55.112Z,3.30
2018-05-18T23:14:23.814Z,3.10
2018-05-18T23:16:52.845Z,3.20
2018-05-18T23:19:21.859Z,3.07
2018-05-18T23:21:51.140Z,2.70
2018-05-18T23:24:20.543Z,2.80
2018-05-18T23:26:49.093Z,2.43
2018-05-18T23:29:17.787Z,3.17
2018-05-18T23:31:46.523Z,2.43
2018-05-18T23:34:15.148Z,3.00
2018-05-18T23:36:43.879Z,3.33
2018-05-18T23:39:12.688Z,2.67
2018-05-18T23:41:41.335Z,3.07
2018-05-18T23:44:10.174Z,2.73
2018-05-18T23:46:38.672Z,2.80
2018-05-18T23:49:07.470Z,3.00
2018-05-18T23:51:36.406Z,2.83
2018-05-18T23:54:05.761Z,3.50
2018-05-18T23:56:34.804Z,3.73
2018-05-18T23:59:04.794Z,3.80
